createdAt,value
2019-02-27T00:01:31.608Z,1.96
2019-02-27T00:03:59.800Z,1.92
2019-02-27T00:06:26.036Z,1.93
2019-02-27T00:08:52.253Z,1.93
2019-02-27T00:11:18.478Z,1.89
2019-02-27T00:13:44.718Z,1.89
2019-02-27T00:16:11.612Z,1.87
2019-02-27T00:18:39.137Z,1.84
2019-02-27T00:21:05.363Z,0.33
2019-02-27T00:23:31.604Z,1.73
2019-02-27T00:25:57.830Z,1.67
2019-02-27T00:28:24.067Z,1.66
2019-02-27T00:30:50.298Z,1.64
2019-02-27T00:33:16.532Z,1.65
2019-02-27T00:35:42.775Z,1.61
2019-02-27T00:38:09.024Z,1.56
2019-02-27T00:40:38.517Z,0.37
2019-02-27T00:43:03.404Z,1.54
2019-02-27T00:45:29.628Z,1.50
2019-02-27T00:47:55.863Z,1.23
2019-02-27T00:50:22.087Z,1.46
2019-02-27T00:52:50.880Z,1.44
2019-02-27T00:55:16.475Z,1.35
2019-02-27T00:57:42.711Z,1.24
2019-02-27T01:00:28.694Z,1.13
2019-02-27T01:02:54.931Z,1.09
2019-02-27T01:05:21.155Z,1.10
2019-02-27T01:07:47.391Z,1.09
2019-02-27T01:10:13.624Z,1.01
2019-02-27T01:12:39.865Z,0.97
2019-02-27T01:15:47.392Z,0.97
2019-02-27T01:18:13.636Z,0.94
2019-02-27T01:20:39.859Z,0.90
2019-02-27T01:23:06.100Z,0.89
2019-02-27T01:25:32.348Z,0.87
2019-02-27T01:27:58.593Z,0.86
2019-02-27T01:30:24.936Z,0.86
2019-02-27T01:32:51.143Z,0.90
2019-02-27T01:35:18.692Z,0.89
2019-02-27T01:37:45.507Z,0.86
2019-02-27T01:40:53.066Z,0.84
2019-02-27T01:43:19.296Z,0.79
2019-02-27T01:45:45.535Z,0.69
2019-02-27T01:48:11.761Z,0.62
2019-02-27T01:50:38.001Z,0.55
2019-02-27T01:53:07.030Z,0.51
2019-02-27T01:55:32.383Z,0.47
2019-02-27T01:57:58.611Z,0.39
2019-02-27T02:00:24.851Z,0.34
2019-02-27T02:02:51.096Z,0.30
2019-02-27T02:05:17.435Z,0.24
2019-02-27T02:10:58.876Z,0.40
2019-02-27T02:13:58.100Z,0.57
2019-02-27T02:22:58.637Z,0.51
2019-02-27T02:29:04.875Z,0.83
2019-02-27T02:32:16.739Z,0.92
2019-02-27T02:35:20.054Z,0.83
2019-02-27T02:38:25.800Z,1.01
2019-02-27T02:44:45.318Z,1.08
2019-02-27T02:47:55.861Z,1.39
2019-02-27T02:54:02.142Z,1.36
2019-02-27T02:57:08.052Z,1.20
2019-02-27T03:00:13.887Z,1.18
2019-02-27T03:06:20.502Z,1.40
2019-02-27T03:09:30.237Z,1.46
2019-02-27T03:18:48.992Z,1.99
2019-02-27T03:21:54.747Z,2.00
2019-02-27T03:25:04.485Z,2.05
2019-02-27T03:28:09.920Z,2.15
2019-02-27T03:31:18.035Z,2.22
2019-02-27T03:34:23.298Z,2.19
2019-02-27T03:37:30.859Z,2.32
2019-02-27T03:43:37.473Z,2.36
2019-02-27T03:49:44.026Z,2.39
2019-02-27T03:52:49.763Z,2.48
2019-02-27T04:05:07.126Z,2.64
2019-02-27T04:10:33.040Z,2.84
2019-02-27T04:12:59.271Z,2.76
2019-02-27T04:15:25.495Z,2.73
2019-02-27T04:17:52.190Z,2.68
2019-02-27T04:20:19.447Z,2.71
2019-02-27T04:22:45.680Z,2.72
2019-02-27T04:25:11.941Z,2.56
2019-02-27T04:27:38.168Z,2.52
2019-02-27T04:30:51.099Z,2.66
2019-02-27T04:33:13.850Z,2.79
2019-02-27T04:35:40.189Z,2.70
2019-02-27T04:38:06.415Z,2.84
2019-02-27T04:40:32.666Z,2.83
2019-02-27T04:42:59.300Z,2.83
2019-02-27T04:48:02.029Z,2.81
2019-02-27T04:50:28.266Z,2.76
2019-02-27T04:53:01.856Z,2.73
2019-02-27T04:55:28.099Z,2.66
2019-02-27T04:57:54.325Z,2.59
2019-02-27T05:00:20.567Z,2.59
2019-02-27T05:02:46.803Z,2.64
2019-02-27T05:05:13.044Z,2.72
2019-02-27T05:07:39.273Z,2.77
2019-02-27T05:10:46.826Z,2.67
2019-02-27T05:13:13.075Z,2.56
2019-02-27T05:15:39.698Z,2.55
2019-02-27T05:18:07.456Z,2.63
2019-02-27T05:20:33.695Z,2.55
2019-02-27T05:23:00.394Z,2.61
2019-02-27T05:25:28.096Z,2.59
2019-02-27T05:27:54.326Z,2.73
2019-02-27T05:30:20.573Z,2.82
2019-02-27T05:32:46.815Z,2.85
2019-02-27T05:35:13.048Z,2.93
2019-02-27T05:37:39.462Z,2.89
2019-02-27T05:40:47.029Z,2.95
2019-02-27T05:43:14.036Z,3.13
2019-02-27T05:45:41.392Z,2.93
2019-02-27T05:48:07.635Z,2.89
2019-02-27T05:50:34.792Z,2.85
2019-02-27T05:53:02.022Z,2.89
2019-02-27T05:55:28.251Z,2.82
2019-02-27T05:57:54.503Z,3.09
2019-02-27T06:03:08.381Z,3.06
2019-02-27T06:05:35.928Z,2.97
2019-02-27T06:08:03.063Z,2.92
2019-02-27T06:10:29.299Z,2.98
2019-02-27T06:12:55.532Z,2.99
2019-02-27T06:15:21.777Z,2.96
2019-02-27T06:17:49.119Z,2.96
2019-02-27T06:20:16.151Z,2.97
2019-02-27T06:22:42.391Z,3.08
2019-02-27T06:25:28.384Z,3.03
2019-02-27T06:33:45.163Z,2.91
2019-02-27T06:36:11.077Z,3.01
2019-02-27T06:38:37.326Z,3.01
2019-02-27T06:41:03.560Z,2.86
2019-02-27T06:43:29.819Z,2.81
2019-02-27T06:45:56.063Z,2.92
2019-02-27T06:48:22.314Z,3.12
2019-02-27T06:50:48.550Z,3.26
2019-02-27T06:53:16.392Z,3.23
2019-02-27T06:55:42.940Z,3.42
2019-02-27T06:58:09.200Z,3.55
2019-02-27T07:00:36.749Z,3.50
2019-02-27T07:03:03.580Z,3.50
2019-02-27T07:05:29.813Z,3.54
2019-02-27T07:07:56.057Z,3.49
2019-02-27T07:10:22.290Z,3.56
2019-02-27T07:12:48.527Z,3.75
2019-02-27T07:15:56.092Z,3.81
2019-02-27T07:18:22.331Z,3.89
2019-02-27T07:20:48.570Z,3.97
2019-02-27T07:23:14.813Z,4.01
2019-02-27T07:25:42.255Z,3.95
2019-02-27T07:28:09.323Z,3.98
2019-02-27T07:30:35.541Z,4.15
2019-02-27T07:33:03.745Z,4.30
2019-02-27T07:35:29.919Z,4.40
2019-02-27T07:37:56.154Z,4.27
2019-02-27T07:40:22.404Z,4.24
2019-02-27T07:42:48.628Z,4.36
2019-02-27T07:45:34.645Z,4.63
2019-02-27T07:48:00.867Z,4.73
2019-02-27T07:50:27.114Z,4.74
2019-02-27T07:52:53.356Z,4.76
2019-02-27T07:55:23.035Z,4.88
2019-02-27T07:57:47.727Z,5.03
2019-02-27T08:00:55.278Z,5.12
2019-02-27T08:03:21.504Z,5.22
2019-02-27T08:05:47.754Z,5.46
2019-02-27T08:08:13.979Z,5.46
2019-02-27T08:10:40.224Z,5.42
2019-02-27T08:13:06.460Z,5.48
2019-02-27T08:15:32.716Z,5.58
2019-02-27T08:17:59.028Z,5.67
2019-02-27T08:20:25.296Z,5.69
2019-02-27T08:22:51.531Z,5.75
2019-02-27T08:25:17.905Z,5.78
2019-02-27T08:27:44.146Z,5.84
2019-02-27T08:30:51.687Z,5.73
2019-02-27T08:33:17.916Z,5.87
2019-02-27T08:35:44.163Z,6.09
2019-02-27T08:38:10.383Z,6.09
2019-02-27T08:40:36.634Z,6.01
2019-02-27T08:43:02.864Z,5.92
2019-02-27T08:45:29.103Z,5.90
2019-02-27T08:47:55.822Z,6.07
2019-02-27T08:50:23.500Z,6.17
2019-02-27T08:52:51.441Z,6.17
2019-02-27T08:57:45.933Z,6.22
2019-02-27T09:00:53.478Z,6.42
2019-02-27T09:03:20.585Z,6.55
2019-02-27T09:05:47.876Z,6.78
2019-02-27T09:08:14.105Z,6.83
2019-02-27T09:10:40.339Z,6.84
2019-02-27T09:13:06.576Z,7.04
2019-02-27T09:15:32.810Z,7.12
2019-02-27T09:18:01.586Z,7.18
2019-02-27T09:20:27.199Z,7.36
2019-02-27T09:22:53.441Z,7.52
2019-02-27T09:25:23.736Z,7.60
2019-02-27T09:27:47.826Z,7.67
2019-02-27T09:30:33.821Z,7.63
2019-02-27T09:33:00.064Z,7.52
2019-02-27T09:35:26.291Z,7.73
2019-02-27T09:37:52.537Z,7.87
2019-02-27T09:40:39.580Z,8.01
2019-02-27T09:43:06.674Z,8.20
2019-02-27T09:48:46.923Z,7.98
2019-02-27T09:51:13.153Z,7.83
2019-02-27T09:53:39.387Z,7.73
2019-02-27T09:56:05.627Z,7.65
2019-02-27T09:58:31.892Z,7.58
2019-02-27T10:01:39.438Z,7.36
2019-02-27T10:04:05.786Z,7.41
2019-02-27T10:06:51.763Z,7.13
2019-02-27T10:09:18.017Z,6.96
2019-02-27T10:11:44.249Z,6.82
2019-02-27T10:14:10.490Z,6.65
2019-02-27T10:16:36.720Z,6.57
2019-02-27T10:19:02.960Z,6.78
2019-02-27T10:21:29.185Z,6.87
2019-02-27T10:23:55.422Z,6.82
2019-02-27T10:26:22.659Z,6.76
2019-02-27T10:28:49.796Z,6.66
2019-02-27T10:31:16.026Z,6.63
2019-02-27T10:33:42.860Z,6.75
2019-02-27T10:36:10.764Z,6.87
2019-02-27T10:38:40.443Z,6.78
2019-02-27T10:41:26.445Z,6.73
2019-02-27T10:43:56.151Z,6.88
2019-02-27T10:46:23.505Z,6.77
2019-02-27T10:48:48.971Z,6.67
2019-02-27T10:51:15.203Z,6.81
2019-02-27T10:53:41.429Z,6.97
2019-02-27T10:56:07.675Z,6.99
2019-02-27T10:58:33.926Z,7.14
2019-02-27T11:01:01.196Z,7.32
2019-02-27T11:03:28.300Z,7.63
2019-02-27T11:05:55.576Z,7.68
2019-02-27T11:08:22.663Z,7.49
2019-02-27T11:10:48.903Z,7.49
2019-02-27T11:13:15.132Z,7.63
2019-02-27T11:15:44.053Z,7.68
2019-02-27T11:18:09.516Z,7.73
2019-02-27T11:20:35.753Z,7.74
2019-02-27T11:23:06.438Z,7.80
2019-02-27T11:26:11.532Z,7.66
2019-02-27T11:28:37.762Z,7.64
2019-02-27T11:31:04.009Z,7.63
2019-02-27T11:33:33.460Z,7.58
2019-02-27T11:35:58.372Z,7.48
2019-02-27T11:38:25.396Z,7.50
2019-02-27T11:40:52.737Z,7.37
2019-02-27T11:43:18.970Z,7.21
2019-02-27T11:45:45.211Z,7.10
2019-02-27T11:48:11.431Z,7.21
2019-02-27T11:50:37.669Z,7.28
2019-02-27T11:53:03.994Z,7.40
2019-02-27T11:55:30.218Z,7.52
2019-02-27T11:57:56.468Z,7.69
2019-02-27T12:01:04.024Z,7.69
2019-02-27T12:03:30.240Z,7.57
2019-02-27T12:05:56.487Z,7.45
2019-02-27T12:08:25.771Z,7.42
2019-02-27T12:10:50.850Z,7.31
2019-02-27T12:13:17.072Z,7.19
2019-02-27T12:15:44.225Z,7.09
2019-02-27T12:18:11.435Z,6.85
2019-02-27T12:20:37.660Z,6.75
2019-02-27T12:25:41.298Z,6.71
2019-02-27T12:28:07.525Z,6.76
2019-02-27T12:30:37.139Z,6.84
2019-02-27T12:33:01.987Z,6.98
2019-02-27T12:38:42.523Z,6.73
2019-02-27T12:41:10.001Z,6.92
2019-02-27T12:43:36.221Z,7.09
2019-02-27T12:46:02.442Z,7.05
2019-02-27T12:48:28.675Z,6.82
2019-02-27T12:50:54.900Z,6.68
2019-02-27T12:53:21.794Z,6.51
2019-02-27T12:55:49.294Z,6.39
2019-02-27T12:58:15.533Z,6.23
2019-02-27T13:00:42.517Z,6.16
2019-02-27T13:03:09.896Z,6.07
2019-02-27T13:05:36.133Z,6.12
2019-02-27T13:08:02.367Z,6.16
2019-02-27T13:10:32.946Z,6.11
2019-02-27T13:12:56.727Z,6.15
2019-02-27T13:16:04.255Z,6.01
2019-02-27T13:18:32.010Z,5.79
2019-02-27T13:20:58.612Z,5.71
2019-02-27T13:23:24.856Z,5.82
2019-02-27T13:25:51.081Z,5.93
2019-02-27T13:28:17.323Z,5.85
2019-02-27T13:30:43.549Z,5.81
2019-02-27T13:33:09.792Z,5.84
2019-02-27T13:35:36.119Z,5.89
2019-02-27T13:38:02.349Z,5.85
2019-02-27T13:41:10.526Z,5.72
2019-02-27T13:43:38.076Z,5.72
2019-02-27T13:46:04.306Z,5.84
2019-02-27T13:48:30.528Z,5.79
2019-02-27T13:50:59.261Z,5.69
2019-02-27T13:53:26.619Z,5.60
2019-02-27T13:55:53.673Z,5.82
2019-02-27T13:58:21.180Z,5.83
2019-02-27T14:00:47.422Z,5.68
2019-02-27T14:03:13.653Z,5.75
2019-02-27T14:05:39.883Z,5.91
2019-02-27T14:08:06.366Z,5.88
2019-02-27T14:11:13.981Z,5.79
2019-02-27T14:13:43.759Z,5.81
2019-02-27T14:16:08.365Z,5.72
2019-02-27T14:18:34.584Z,5.65
2019-02-27T14:21:01.695Z,5.48
2019-02-27T14:23:28.940Z,5.37
2019-02-27T14:25:55.191Z,5.30
2019-02-27T14:28:21.672Z,5.25
2019-02-27T14:31:29.258Z,5.24
2019-02-27T14:33:55.486Z,5.19
2019-02-27T14:36:21.730Z,5.34
2019-02-27T14:38:47.951Z,5.27
2019-02-27T14:41:14.365Z,5.27
2019-02-27T14:43:42.328Z,5.21
2019-02-27T14:46:11.591Z,5.15
2019-02-27T14:48:36.689Z,5.12
2019-02-27T14:51:07.434Z,5.06
2019-02-27T14:53:31.157Z,5.09
2019-02-27T14:55:57.400Z,5.00
2019-02-27T14:58:24.429Z,4.85
2019-02-27T15:00:51.799Z,4.89
2019-02-27T15:03:18.026Z,4.83
2019-02-27T15:05:45.260Z,4.78
2019-02-27T15:08:12.390Z,4.77
2019-02-27T15:10:41.059Z,4.62
2019-02-27T15:13:06.818Z,4.76
2019-02-27T15:15:33.046Z,4.79
2019-02-27T15:18:40.586Z,4.66
2019-02-27T15:21:06.845Z,4.66
2019-02-27T15:23:33.079Z,4.69
2019-02-27T15:25:59.313Z,4.69
2019-02-27T15:28:25.551Z,4.73
2019-02-27T15:30:51.782Z,4.78
2019-02-27T15:33:18.021Z,4.60
2019-02-27T15:35:44.238Z,4.56
2019-02-27T15:38:11.772Z,4.69
2019-02-27T15:40:38.746Z,4.69
2019-02-27T15:43:11.207Z,4.62
2019-02-27T15:45:33.102Z,4.46
2019-02-27T15:47:59.352Z,4.56
2019-02-27T15:51:06.907Z,4.55
2019-02-27T15:53:33.163Z,4.58
2019-02-27T15:55:59.395Z,4.55
2019-02-27T15:58:28.064Z,4.43
2019-02-27T16:00:53.759Z,4.46
2019-02-27T16:03:19.996Z,4.51
2019-02-27T16:05:46.234Z,4.33
2019-02-27T16:08:12.470Z,4.28
2019-02-27T16:10:42.621Z,4.25
2019-02-27T16:13:06.845Z,4.22
2019-02-27T16:15:33.129Z,4.30
2019-02-27T16:17:59.379Z,4.22
2019-02-27T16:21:06.949Z,4.25
2019-02-27T16:23:37.246Z,4.18
2019-02-27T16:26:01.355Z,4.10
2019-02-27T16:28:27.591Z,4.00
2019-02-27T16:30:53.817Z,3.90
2019-02-27T16:33:23.957Z,3.92
2019-02-27T16:35:48.173Z,4.05
2019-02-27T16:38:14.398Z,4.09
2019-02-27T16:40:40.637Z,4.05
2019-02-27T16:43:06.875Z,3.97
2019-02-27T16:45:52.864Z,4.03
2019-02-27T16:48:19.087Z,4.03
2019-02-27T16:50:45.726Z,4.00
2019-02-27T16:53:18.618Z,3.98
2019-02-27T16:55:41.624Z,3.98
2019-02-27T16:58:07.854Z,3.94
2019-02-27T17:01:15.398Z,3.85
2019-02-27T17:03:41.621Z,3.78
2019-02-27T17:06:07.868Z,3.92
2019-02-27T17:08:35.665Z,3.91
2019-02-27T17:11:02.243Z,3.94
2019-02-27T17:13:28.471Z,4.00
2019-02-27T17:15:54.733Z,3.90
2019-02-27T17:18:20.936Z,3.81
2019-02-27T17:20:47.384Z,3.78
2019-02-27T17:23:15.314Z,3.81
2019-02-27T17:25:41.555Z,3.87
2019-02-27T17:28:07.797Z,3.84
2019-02-27T17:31:15.347Z,3.74
2019-02-27T17:33:41.590Z,3.72
2019-02-27T17:36:07.859Z,3.84
2019-02-27T17:38:34.090Z,3.76
2019-02-27T17:41:00.311Z,3.68
2019-02-27T17:43:29.527Z,3.55
2019-02-27T17:45:54.711Z,3.50
2019-02-27T17:48:20.939Z,3.45
2019-02-27T17:50:47.194Z,3.38
2019-02-27T17:53:13.413Z,3.35
2019-02-27T17:55:41.567Z,3.32
2019-02-27T17:58:07.791Z,3.35
2019-02-27T18:03:21.648Z,3.25
2019-02-27T18:05:47.871Z,3.19
2019-02-27T18:08:16.246Z,3.14
2019-02-27T18:10:42.276Z,3.18
2019-02-27T18:13:08.535Z,3.13
2019-02-27T18:15:34.751Z,3.04
2019-02-27T18:18:00.987Z,2.99
2019-02-27T18:20:27.208Z,2.97
2019-02-27T18:22:53.456Z,3.09
2019-02-27T18:25:19.686Z,3.02
2019-02-27T18:27:47.812Z,2.95
2019-02-27T18:33:27.714Z,2.90
2019-02-27T18:35:54.566Z,2.89
2019-02-27T18:38:22.084Z,2.85
2019-02-27T18:40:48.307Z,2.78
2019-02-27T18:43:14.566Z,2.75
2019-02-27T18:45:40.789Z,2.74
2019-02-27T18:48:07.396Z,2.67
2019-02-27T18:50:35.158Z,2.77
2019-02-27T18:53:01.393Z,3.03
2019-02-27T18:55:30.737Z,3.02
2019-02-27T18:57:55.767Z,2.92
2019-02-27T19:01:03.343Z,2.94
2019-02-27T19:03:29.575Z,2.79
2019-02-27T19:05:55.852Z,2.65
2019-02-27T19:08:22.052Z,2.63
2019-02-27T19:10:48.287Z,2.54
2019-02-27T19:13:14.529Z,2.52
2019-02-27T19:15:45.436Z,2.52
2019-02-27T19:18:08.939Z,2.51
2019-02-27T19:21:16.488Z,2.52
2019-02-27T19:23:42.768Z,2.49
2019-02-27T19:26:09.426Z,2.42
2019-02-27T19:28:37.130Z,2.45
2019-02-27T19:31:03.368Z,2.44
2019-02-27T19:33:29.571Z,2.36
2019-02-27T19:35:56.394Z,2.34
2019-02-27T19:38:23.946Z,2.40
2019-02-27T19:40:50.183Z,2.58
2019-02-27T19:43:18.146Z,2.51
2019-02-27T19:45:44.661Z,2.48
2019-02-27T19:48:10.880Z,2.45
2019-02-27T19:50:37.119Z,2.45
2019-02-27T19:53:06.712Z,2.45
2019-02-27T19:55:31.586Z,2.37
2019-02-27T19:57:57.825Z,2.40
2019-02-27T20:00:48.349Z,2.34
2019-02-27T20:03:11.960Z,2.29
2019-02-27T20:05:38.192Z,2.29
2019-02-27T20:08:45.759Z,2.35
2019-02-27T20:11:12.083Z,2.35
2019-02-27T20:13:38.304Z,2.35
2019-02-27T20:16:04.539Z,2.28
2019-02-27T20:18:30.755Z,2.22
2019-02-27T20:20:56.992Z,2.26
2019-02-27T20:23:25.768Z,2.47
2019-02-27T20:25:51.359Z,2.43
2019-02-27T20:28:17.579Z,2.40
2019-02-27T20:33:17.911Z,2.20
2019-02-27T20:35:44.144Z,2.17
2019-02-27T20:38:15.369Z,2.31
2019-02-27T20:40:38.515Z,2.37
2019-02-27T20:43:04.734Z,2.36
2019-02-27T20:45:30.960Z,2.29
2019-02-27T20:48:01.604Z,2.27
2019-02-27T20:50:46.298Z,2.34
2019-02-27T20:53:34.089Z,2.25
2019-02-27T20:56:02.926Z,2.17
2019-02-27T20:58:28.448Z,2.18
2019-02-27T21:00:54.677Z,2.26
2019-02-27T21:03:20.921Z,2.24
2019-02-27T21:05:48.570Z,2.16
2019-02-27T21:08:15.296Z,2.17
2019-02-27T21:10:41.518Z,2.17
2019-02-27T21:13:07.752Z,2.13
2019-02-27T21:15:33.975Z,2.16
2019-02-27T21:18:00.221Z,2.17
2019-02-27T21:20:26.535Z,2.21
2019-02-27T21:22:52.775Z,2.15
2019-02-27T21:25:18.995Z,2.11
2019-02-27T21:27:45.246Z,2.09
2019-02-27T21:30:31.216Z,2.02
2019-02-27T21:32:57.507Z,2.03
2019-02-27T21:35:28.693Z,2.16
2019-02-27T21:37:51.968Z,2.08
2019-02-27T21:40:59.527Z,2.07
2019-02-27T21:43:26.351Z,1.96
2019-02-27T21:45:54.388Z,1.95
2019-02-27T21:48:23.430Z,1.95
2019-02-27T21:50:50.187Z,1.93
2019-02-27T21:53:16.427Z,1.89
2019-02-27T21:55:44.704Z,1.85
2019-02-27T21:58:20.020Z,1.82
2019-02-27T22:00:38.959Z,1.85
2019-02-27T22:03:05.290Z,1.75
2019-02-27T22:05:31.534Z,1.66
2019-02-27T22:07:57.778Z,1.68
2019-02-27T22:10:24.000Z,1.68
2019-02-27T22:12:50.217Z,1.60
2019-02-27T22:15:57.767Z,1.57
2019-02-27T22:18:24.000Z,1.56
2019-02-27T22:20:50.235Z,1.49
2019-02-27T22:23:16.459Z,1.47
2019-02-27T22:25:42.701Z,1.41
2019-02-27T22:28:08.940Z,1.46
2019-02-27T22:30:35.189Z,1.43
2019-02-27T22:33:01.409Z,1.40
2019-02-27T22:35:27.647Z,1.40
2019-02-27T22:37:53.871Z,1.42
2019-02-27T22:41:01.428Z,1.36
2019-02-27T22:43:27.657Z,1.33
2019-02-27T22:45:53.901Z,1.34
2019-02-27T22:48:20.124Z,1.29
2019-02-27T22:50:46.363Z,1.26
2019-02-27T22:53:12.593Z,1.34
2019-02-27T22:55:42.146Z,1.27
2019-02-27T22:58:06.967Z,1.26
2019-02-27T23:01:15.127Z,1.28
2019-02-27T23:04:01.791Z,1.22
2019-02-27T23:06:28.027Z,1.20
2019-02-27T23:08:55.035Z,1.28
2019-02-27T23:11:22.414Z,1.33
2019-02-27T23:16:25.856Z,1.43
2019-02-27T23:18:52.080Z,1.49
2019-02-27T23:21:18.324Z,1.48
2019-02-27T23:23:44.543Z,1.47
2019-02-27T23:26:10.788Z,1.43
2019-02-27T23:28:37.030Z,1.43
2019-02-27T23:31:03.265Z,1.49
2019-02-27T23:33:29.604Z,1.50
2019-02-27T23:35:55.820Z,1.53
2019-02-27T23:38:22.038Z,1.51
2019-02-27T23:40:50.002Z,1.46
2019-02-27T23:43:16.395Z,1.47
2019-02-27T23:45:44.545Z,1.56
2019-02-27T23:48:10.769Z,1.55
2019-02-27T23:50:36.987Z,1.52
2019-02-27T23:53:03.326Z,1.59
2019-02-27T23:55:29.567Z,1.54
2019-02-27T23:57:57.901Z,1.54
